createdAt,value
2018-09-25T00:00:06.518Z,91.52
2018-09-25T00:02:40.990Z,92.08
2018-09-25T00:05:15.429Z,91.22
2018-09-25T00:07:49.701Z,90.49
2018-09-25T00:10:24.197Z,90.07
2018-09-25T00:12:58.691Z,90.18
2018-09-25T00:15:33.154Z,90.36
2018-09-25T00:18:07.548Z,90.43
2018-09-25T00:20:41.837Z,91.06
2018-09-25T00:23:16.208Z,91.21
2018-09-25T00:25:50.547Z,92.10
2018-09-25T00:28:25.050Z,92.47
2018-09-25T00:30:59.431Z,92.47
2018-09-25T00:33:50.705Z,92.05
2018-09-25T00:36:25.171Z,92.26
2018-09-25T00:38:59.478Z,91.29
2018-09-25T00:41:33.990Z,91.33
2018-09-25T00:44:08.304Z,91.58
2018-09-25T00:46:42.838Z,90.87
2018-09-25T00:49:17.118Z,90.71
2018-09-25T00:51:51.598Z,90.63
2018-09-25T00:54:25.875Z,90.29
2018-09-25T00:57:00.562Z,90.50
2018-09-25T00:59:34.918Z,90.60
2018-09-25T01:02:09.787Z,91.75
2018-09-25T01:04:44.050Z,90.70
2018-09-25T01:07:18.491Z,90.00
2018-09-25T01:09:52.886Z,89.96
2018-09-25T01:12:27.345Z,90.61
2018-09-25T01:15:01.554Z,89.99
2018-09-25T01:17:35.965Z,89.85
2018-09-25T01:20:10.579Z,89.11
2018-09-25T01:22:44.870Z,88.82
2018-09-25T01:25:19.266Z,88.47
2018-09-25T01:27:53.506Z,88.31
2018-09-25T01:30:28.007Z,88.14
2018-09-25T01:33:02.343Z,88.48
2018-09-25T01:35:36.686Z,88.75
2018-09-25T01:38:11.236Z,88.95
2018-09-25T01:40:45.566Z,89.56
2018-09-25T01:43:19.919Z,89.92
2018-09-25T01:45:54.187Z,89.98
2018-09-25T01:48:28.623Z,90.43
2018-09-25T01:51:03.018Z,90.33
2018-09-25T01:53:37.492Z,90.02
2018-09-25T01:56:11.880Z,89.43
2018-09-25T01:58:46.276Z,89.66
2018-09-25T02:01:20.471Z,89.13
2018-09-25T02:03:54.711Z,89.16
2018-09-25T02:06:29.119Z,89.56
2018-09-25T02:09:03.450Z,88.56
2018-09-25T02:11:37.824Z,87.94
2018-09-25T02:14:12.239Z,89.50
2018-09-25T02:16:46.683Z,89.75
2018-09-25T02:19:21.166Z,89.78
2018-09-25T02:21:55.615Z,90.16
2018-09-25T02:24:29.883Z,90.34
2018-09-25T02:27:04.199Z,90.81
2018-09-25T02:29:38.741Z,90.86
2018-09-25T02:32:13.410Z,90.99
2018-09-25T02:34:47.828Z,91.77
2018-09-25T02:37:22.168Z,91.45
2018-09-25T02:39:56.471Z,91.83
2018-09-25T02:42:30.992Z,90.73
2018-09-25T02:45:05.458Z,91.90
2018-09-25T02:47:39.678Z,91.64
2018-09-25T02:50:14.312Z,90.69
2018-09-25T02:52:48.679Z,90.81
2018-09-25T02:55:23.003Z,90.94
2018-09-25T02:57:57.492Z,89.99
2018-09-25T03:00:32.058Z,90.54
2018-09-25T03:03:06.437Z,90.93
2018-09-25T03:05:41.052Z,90.40
2018-09-25T03:08:15.493Z,91.10
2018-09-25T03:10:49.991Z,91.22
2018-09-25T03:13:24.274Z,90.82
2018-09-25T03:15:58.516Z,91.09
2018-09-25T03:18:32.860Z,90.98
2018-09-25T03:21:07.384Z,91.57
2018-09-25T03:23:41.905Z,91.70
2018-09-25T03:26:16.376Z,91.90
2018-09-25T03:28:51.004Z,91.93
2018-09-25T03:31:25.251Z,91.55
2018-09-25T03:33:59.487Z,92.25
2018-09-25T03:36:33.937Z,92.39
2018-09-25T03:39:08.454Z,92.13
2018-09-25T03:41:43.006Z,92.43
2018-09-25T03:44:17.425Z,92.25
2018-09-25T03:46:51.807Z,93.24
2018-09-25T03:49:26.079Z,93.62
2018-09-25T03:52:00.948Z,93.30
2018-09-25T03:54:35.296Z,92.94
2018-09-25T03:57:09.580Z,92.56
2018-09-25T03:59:44.083Z,92.19
2018-09-25T04:02:18.339Z,92.63
2018-09-25T04:04:52.615Z,92.27
2018-09-25T04:07:26.804Z,92.63
2018-09-25T04:10:01.276Z,91.98
2018-09-25T04:12:35.700Z,92.06
2018-09-25T04:15:10.011Z,91.53
2018-09-25T04:17:44.155Z,91.60
2018-09-25T04:20:18.393Z,92.04
2018-09-25T04:22:52.718Z,91.88
2018-09-25T04:25:27.082Z,92.42
2018-09-25T04:28:01.565Z,93.57
2018-09-25T04:30:35.995Z,92.81
2018-09-25T04:33:10.636Z,92.62
2018-09-25T04:35:45.027Z,92.87
2018-09-25T04:38:19.322Z,92.39
2018-09-25T04:40:53.811Z,92.45
2018-09-25T04:43:28.283Z,92.47
2018-09-25T04:46:02.779Z,92.11
2018-09-25T04:48:37.246Z,92.35
2018-09-25T04:51:11.808Z,91.85
2018-09-25T04:53:46.310Z,92.62
2018-09-25T04:56:20.746Z,93.31
2018-09-25T04:58:55.172Z,93.95
2018-09-25T05:01:29.799Z,94.07
2018-09-25T05:04:04.465Z,94.32
2018-09-25T05:06:39.031Z,93.87
2018-09-25T05:09:13.466Z,92.59
2018-09-25T05:11:47.811Z,92.44
2018-09-25T05:14:22.227Z,92.16
2018-09-25T05:16:56.762Z,92.12
2018-09-25T05:19:30.963Z,92.53
2018-09-25T05:22:05.491Z,93.35
2018-09-25T05:24:39.829Z,92.99
2018-09-25T05:27:14.136Z,93.15
2018-09-25T05:29:48.363Z,92.78
2018-09-25T05:32:22.729Z,93.03
2018-09-25T05:34:57.429Z,93.55
2018-09-25T05:37:31.861Z,93.37
2018-09-25T05:40:09.235Z,93.85
2018-09-25T05:42:43.499Z,92.12
2018-09-25T05:45:17.853Z,92.09
2018-09-25T05:47:58.503Z,90.87
2018-09-25T05:50:32.779Z,90.38
2018-09-25T05:53:07.348Z,91.40
2018-09-25T05:55:41.902Z,91.49
2018-09-25T05:58:16.182Z,90.50
2018-09-25T06:00:50.545Z,90.80
2018-09-25T06:03:24.795Z,90.50
2018-09-25T06:05:59.536Z,90.45
2018-09-25T06:08:33.878Z,91.58
2018-09-25T06:11:08.375Z,91.13
2018-09-25T06:13:42.671Z,90.53
2018-09-25T06:16:17.038Z,90.02
2018-09-25T06:18:51.492Z,90.38
2018-09-25T06:21:25.824Z,90.76
2018-09-25T06:24:00.334Z,89.97
2018-09-25T06:26:34.766Z,89.04
2018-09-25T06:29:09.172Z,89.76
2018-09-25T06:31:43.471Z,90.85
2018-09-25T06:34:17.839Z,88.90
2018-09-25T06:36:52.149Z,89.07
2018-09-25T06:39:26.543Z,89.53
2018-09-25T06:42:00.796Z,89.66
2018-09-25T06:44:35.157Z,88.58
2018-09-25T06:47:09.679Z,89.34
2018-09-25T06:49:44.102Z,89.01
2018-09-25T06:52:18.430Z,88.77
2018-09-25T06:54:52.766Z,88.78
2018-09-25T06:57:27.119Z,89.19
2018-09-25T07:00:01.272Z,89.12
2018-09-25T07:02:35.627Z,89.55
2018-09-25T07:05:10.012Z,88.74
2018-09-25T07:07:44.247Z,88.99
2018-09-25T07:10:18.734Z,89.40
2018-09-25T07:12:52.960Z,88.33
2018-09-25T07:15:27.603Z,88.66
2018-09-25T07:18:02.201Z,87.33
2018-09-25T07:20:36.443Z,88.00
2018-09-25T07:23:10.906Z,87.49
2018-09-25T07:25:45.250Z,88.20
2018-09-25T07:28:20.186Z,87.20
2018-09-25T07:30:54.639Z,87.50
2018-09-25T07:33:28.908Z,86.60
2018-09-25T07:36:03.246Z,86.09
2018-09-25T07:38:37.806Z,86.25
2018-09-25T07:41:12.514Z,84.30
2018-09-25T07:43:47.050Z,84.27
2018-09-25T07:46:21.299Z,83.70
2018-09-25T07:48:56.022Z,83.90
2018-09-25T07:51:30.355Z,82.52
2018-09-25T07:54:04.770Z,83.32
2018-09-25T07:56:39.271Z,82.03
2018-09-25T07:59:13.859Z,81.05
2018-09-25T08:01:48.108Z,80.34
2018-09-25T08:04:22.295Z,80.48
2018-09-25T08:06:56.586Z,80.96
2018-09-25T08:09:30.959Z,79.62
2018-09-25T08:12:05.161Z,79.51
2018-09-25T08:14:39.397Z,79.83
2018-09-25T08:17:14.024Z,79.39
2018-09-25T08:19:48.554Z,78.47
2018-09-25T08:22:22.762Z,78.05
2018-09-25T08:24:57.149Z,78.09
2018-09-25T08:27:31.535Z,78.00
2018-09-25T08:30:05.876Z,76.79
2018-09-25T08:32:40.099Z,76.41
2018-09-25T08:35:14.453Z,76.55
2018-09-25T08:37:48.761Z,76.37
2018-09-25T08:40:23.104Z,76.36
2018-09-25T08:42:57.398Z,76.15
2018-09-25T08:45:31.692Z,77.02
2018-09-25T08:48:06.210Z,75.87
2018-09-25T08:50:40.620Z,76.54
2018-09-25T08:53:14.820Z,74.38
2018-09-25T08:55:49.218Z,74.79
2018-09-25T08:58:23.631Z,75.21
2018-09-25T09:00:58.187Z,75.79
2018-09-25T09:03:32.448Z,75.98
2018-09-25T09:06:06.854Z,75.20
2018-09-25T09:08:41.568Z,73.76
2018-09-25T09:11:16.067Z,73.65
2018-09-25T09:13:50.429Z,73.68
2018-09-25T09:16:24.983Z,73.65
2018-09-25T09:18:59.458Z,73.76
2018-09-25T09:21:34.206Z,71.94
2018-09-25T09:24:08.588Z,72.46
2018-09-25T09:26:42.833Z,71.16
2018-09-25T09:29:17.133Z,69.53
2018-09-25T09:31:51.743Z,70.97
2018-09-25T09:34:25.994Z,69.37
2018-09-25T09:37:00.475Z,68.74
2018-09-25T09:39:34.820Z,68.33
2018-09-25T09:42:09.440Z,67.45
2018-09-25T09:44:44.036Z,69.40
2018-09-25T09:47:18.377Z,68.87
2018-09-25T09:49:52.755Z,68.30
2018-09-25T09:52:27.349Z,67.19
2018-09-25T09:55:01.985Z,66.64
2018-09-25T09:57:36.326Z,64.37
2018-09-25T10:00:10.920Z,65.35
2018-09-25T10:02:45.235Z,64.05
2018-09-25T10:05:19.428Z,64.25
2018-09-25T10:07:53.673Z,65.56
2018-09-25T10:10:28.016Z,65.48
2018-09-25T10:13:02.317Z,65.64
2018-09-25T10:15:36.575Z,65.10
2018-09-25T10:18:11.124Z,65.18
2018-09-25T10:20:45.444Z,65.48
2018-09-25T10:23:19.954Z,65.87
2018-09-25T10:25:54.336Z,65.47
2018-09-25T10:28:28.817Z,66.30
2018-09-25T10:31:03.094Z,67.40
2018-09-25T10:33:37.353Z,67.69
2018-09-25T10:36:11.802Z,68.31
2018-09-25T10:38:46.317Z,67.69
2018-09-25T10:41:20.496Z,67.78
2018-09-25T10:43:54.930Z,68.82
2018-09-25T10:46:29.260Z,69.84
2018-09-25T10:49:03.735Z,67.83
2018-09-25T10:51:38.012Z,69.99
2018-09-25T10:54:12.515Z,68.50
2018-09-25T10:56:46.724Z,65.42
2018-09-25T10:59:21.116Z,64.58
2018-09-25T11:01:55.454Z,64.81
2018-09-25T11:04:29.820Z,64.00
2018-09-25T11:07:04.171Z,64.19
2018-09-25T11:09:38.537Z,64.79
2018-09-25T11:12:12.838Z,65.18
2018-09-25T11:14:47.153Z,65.02
2018-09-25T11:17:21.622Z,64.24
2018-09-25T11:19:56.064Z,64.40
2018-09-25T11:22:30.428Z,65.42
2018-09-25T11:25:04.927Z,64.50
2018-09-25T11:27:39.065Z,64.49
2018-09-25T11:30:13.582Z,63.58
2018-09-25T11:32:47.952Z,62.80
2018-09-25T11:35:22.580Z,63.30
2018-09-25T11:37:56.863Z,63.84
2018-09-25T11:40:31.179Z,62.92
2018-09-25T11:43:05.499Z,60.72
2018-09-25T11:45:39.769Z,62.23
2018-09-25T11:48:14.360Z,59.89
2018-09-25T11:50:48.864Z,58.22
2018-09-25T11:53:23.296Z,58.11
2018-09-25T11:55:57.668Z,57.95
2018-09-25T11:58:32.014Z,57.77
2018-09-25T12:01:06.356Z,57.03
2018-09-25T12:03:40.772Z,58.01
2018-09-25T12:06:15.264Z,58.73
2018-09-25T12:08:49.655Z,56.07
2018-09-25T12:11:24.008Z,55.66
2018-09-25T12:13:58.199Z,54.56
2018-09-25T12:16:32.639Z,53.57
2018-09-25T12:19:07.156Z,53.85
2018-09-25T12:21:41.463Z,56.32
2018-09-25T12:24:15.798Z,53.52
2018-09-25T12:26:50.260Z,53.19
2018-09-25T12:29:24.525Z,53.17
2018-09-25T12:31:58.775Z,54.41
2018-09-25T12:34:33.062Z,55.90
2018-09-25T12:37:07.447Z,56.10
2018-09-25T12:39:41.805Z,57.93
2018-09-25T12:42:16.047Z,57.73
2018-09-25T12:44:50.442Z,57.55
2018-09-25T12:47:24.884Z,57.10
2018-09-25T12:49:59.351Z,57.11
2018-09-25T12:52:33.684Z,56.82
2018-09-25T12:55:07.989Z,56.61
2018-09-25T12:57:42.511Z,58.04
2018-09-25T13:00:16.900Z,55.67
2018-09-25T13:02:51.130Z,58.10
2018-09-25T13:05:25.540Z,55.94
2018-09-25T13:07:59.784Z,55.16
2018-09-25T13:10:34.027Z,54.78
2018-09-25T13:13:08.270Z,54.92
2018-09-25T13:15:42.459Z,57.78
2018-09-25T13:18:16.783Z,56.49
2018-09-25T13:20:51.113Z,55.06
2018-09-25T13:23:25.503Z,56.05
2018-09-25T13:26:00.237Z,54.43
2018-09-25T13:28:34.781Z,54.94
2018-09-25T13:31:09.019Z,56.33
2018-09-25T13:33:43.323Z,56.12
2018-09-25T13:36:17.807Z,56.41
2018-09-25T13:38:52.259Z,56.25
2018-09-25T13:41:26.720Z,56.30
2018-09-25T13:44:01.026Z,56.80
2018-09-25T13:46:35.534Z,57.07
2018-09-25T13:49:09.999Z,53.44
2018-09-25T13:51:44.363Z,53.42
2018-09-25T13:54:18.616Z,53.85
2018-09-25T13:56:53.125Z,53.65
2018-09-25T13:59:27.475Z,53.55
2018-09-25T14:02:01.891Z,52.67
2018-09-25T14:04:36.312Z,51.20
2018-09-25T14:07:10.552Z,50.69
2018-09-25T14:09:44.830Z,50.83
2018-09-25T14:12:19.143Z,51.08
2018-09-25T14:14:53.455Z,51.94
2018-09-25T14:17:27.680Z,50.79
2018-09-25T14:20:01.984Z,51.63
2018-09-25T14:22:36.294Z,52.11
2018-09-25T14:25:10.792Z,52.03
2018-09-25T14:27:45.262Z,51.95
2018-09-25T14:30:19.652Z,52.50
2018-09-25T14:32:54.012Z,52.49
2018-09-25T14:35:28.264Z,50.90
2018-09-25T14:38:02.555Z,52.26
2018-09-25T14:40:36.919Z,52.58
2018-09-25T14:43:11.291Z,52.09
2018-09-25T14:45:45.706Z,51.33
2018-09-25T14:48:20.167Z,50.89
2018-09-25T14:50:54.620Z,51.10
2018-09-25T14:53:29.366Z,52.11
2018-09-25T14:56:03.550Z,51.89
2018-09-25T14:58:38.324Z,51.17
2018-09-25T15:01:12.599Z,50.71
2018-09-25T15:03:46.931Z,51.13
2018-09-25T15:06:21.328Z,51.35
2018-09-25T15:08:55.895Z,51.45
2018-09-25T15:11:30.492Z,51.73
2018-09-25T15:14:04.756Z,52.45
2018-09-25T15:16:38.956Z,52.62
2018-09-25T15:19:13.358Z,53.01
2018-09-25T15:21:47.871Z,53.36
2018-09-25T15:24:22.121Z,54.31
2018-09-25T15:26:56.361Z,54.56
2018-09-25T15:29:30.815Z,54.45
2018-09-25T15:32:05.287Z,54.23
2018-09-25T15:34:39.592Z,54.90
2018-09-25T15:37:13.905Z,54.92
2018-09-25T15:39:48.141Z,54.72
2018-09-25T15:42:22.566Z,55.74
2018-09-25T15:44:56.980Z,55.33
2018-09-25T15:47:31.272Z,56.38
2018-09-25T15:50:05.711Z,55.71
2018-09-25T15:52:40.107Z,55.86
2018-09-25T15:55:14.405Z,56.63
2018-09-25T15:57:48.694Z,56.90
2018-09-25T16:00:22.976Z,57.28
2018-09-25T16:02:57.440Z,57.48
2018-09-25T16:05:31.752Z,56.55
2018-09-25T16:08:06.156Z,58.72
2018-09-25T16:10:40.583Z,58.44
2018-09-25T16:13:14.882Z,58.98
2018-09-25T16:15:49.327Z,58.67
2018-09-25T16:18:23.527Z,59.04
2018-09-25T16:20:58.007Z,58.58
2018-09-25T16:23:32.360Z,59.38
2018-09-25T16:26:06.863Z,57.63
2018-09-25T16:28:41.197Z,58.98
2018-09-25T16:31:15.465Z,58.48
2018-09-25T16:33:49.979Z,58.07
2018-09-25T16:36:24.298Z,58.22
2018-09-25T16:38:58.743Z,59.17
2018-09-25T16:41:33.009Z,59.62
2018-09-25T16:44:07.224Z,60.02
2018-09-25T16:46:41.522Z,59.86
2018-09-25T16:49:15.740Z,60.13
2018-09-25T16:51:50.405Z,60.62
2018-09-25T16:54:24.707Z,60.82
2018-09-25T16:56:59.119Z,61.81
2018-09-25T16:59:33.704Z,62.42
2018-09-25T17:02:08.156Z,63.22
2018-09-25T17:04:42.604Z,63.20
2018-09-25T17:07:16.939Z,63.13
2018-09-25T17:09:51.296Z,63.67
2018-09-25T17:12:25.737Z,63.91
2018-09-25T17:15:00.219Z,65.30
2018-09-25T17:17:34.693Z,65.77
2018-09-25T17:20:09.172Z,66.56
2018-09-25T17:22:43.480Z,67.34
2018-09-25T17:25:17.916Z,68.65
2018-09-25T17:27:52.212Z,69.19
2018-09-25T17:30:26.517Z,69.77
2018-09-25T17:33:00.954Z,70.51
2018-09-25T17:35:35.411Z,70.99
2018-09-25T17:38:09.811Z,70.74
2018-09-25T17:40:44.008Z,72.04
2018-09-25T17:43:18.287Z,72.31
2018-09-25T17:45:52.797Z,72.84
2018-09-25T17:48:27.271Z,73.56
2018-09-25T17:51:01.483Z,73.42
2018-09-25T17:53:35.930Z,74.99
2018-09-25T17:56:10.482Z,74.87
2018-09-25T17:58:45.006Z,74.74
2018-09-25T18:01:19.404Z,74.54
2018-09-25T18:03:53.650Z,74.65
2018-09-25T18:06:27.989Z,74.83
2018-09-25T18:09:02.436Z,75.60
2018-09-25T18:11:36.627Z,75.26
2018-09-25T18:14:17.896Z,75.98
2018-09-25T18:16:52.611Z,75.88
2018-09-25T18:19:27.012Z,76.51
2018-09-25T18:22:01.362Z,76.46
2018-09-25T18:24:35.575Z,75.78
2018-09-25T18:27:10.115Z,76.16
2018-09-25T18:29:44.387Z,75.82
2018-09-25T18:32:18.572Z,76.02
2018-09-25T18:34:52.888Z,76.06
2018-09-25T18:37:27.343Z,75.92
2018-09-25T18:40:01.803Z,76.01
2018-09-25T18:42:37.396Z,76.33
2018-09-25T18:45:15.807Z,77.02
2018-09-25T18:47:50.168Z,78.04
2018-09-25T18:50:24.645Z,78.80
2018-09-25T18:52:58.827Z,79.50
2018-09-25T18:55:33.107Z,79.45
2018-09-25T18:58:07.608Z,79.59
2018-09-25T19:00:42.044Z,80.11
2018-09-25T19:03:16.266Z,79.76
2018-09-25T19:05:50.626Z,79.57
2018-09-25T19:08:25.128Z,79.86
2018-09-25T19:10:59.319Z,80.28
2018-09-25T19:13:33.744Z,81.49
2018-09-25T19:16:08.279Z,81.32
2018-09-25T19:18:42.679Z,80.98
2018-09-25T19:21:16.914Z,81.06
2018-09-25T19:23:51.235Z,82.00
2018-09-25T19:26:25.556Z,81.59
2018-09-25T19:28:59.999Z,80.89
2018-09-25T19:31:34.425Z,81.23
2018-09-25T19:34:08.691Z,81.80
2018-09-25T19:36:43.006Z,81.60
2018-09-25T19:39:17.448Z,82.09
2018-09-25T19:41:51.949Z,81.74
2018-09-25T19:44:26.432Z,82.39
2018-09-25T19:47:00.782Z,83.01
2018-09-25T19:49:35.096Z,83.43
2018-09-25T19:52:09.413Z,83.92
2018-09-25T19:54:43.660Z,84.34
2018-09-25T19:57:17.900Z,83.80
2018-09-25T19:59:52.367Z,83.52
2018-09-25T20:02:26.736Z,83.39
2018-09-25T20:05:01.131Z,83.47
2018-09-25T20:07:35.396Z,83.08
2018-09-25T20:10:10.050Z,82.70
2018-09-25T20:12:44.337Z,82.50
2018-09-25T20:15:18.780Z,83.41
2018-09-25T20:17:53.263Z,84.34
2018-09-25T20:20:27.717Z,84.92
2018-09-25T20:23:02.165Z,84.93
2018-09-25T20:25:36.556Z,84.60
2018-09-25T20:28:10.948Z,84.42
2018-09-25T20:30:45.330Z,84.01
2018-09-25T20:33:19.828Z,83.58
2018-09-25T20:35:54.479Z,83.92
2018-09-25T20:38:28.838Z,84.08
2018-09-25T20:41:03.569Z,84.36
2018-09-25T20:43:37.775Z,84.63
2018-09-25T20:46:12.001Z,85.54
2018-09-25T20:48:46.380Z,85.86
2018-09-25T20:51:20.731Z,84.30
2018-09-25T20:53:55.301Z,84.04
2018-09-25T20:56:29.858Z,84.26
2018-09-25T20:59:04.112Z,84.99
2018-09-25T21:01:38.509Z,85.24
2018-09-25T21:04:12.920Z,84.95
2018-09-25T21:06:47.493Z,84.36
2018-09-25T21:09:21.845Z,84.11
2018-09-25T21:11:56.378Z,83.86
2018-09-25T21:14:30.827Z,84.19
2018-09-25T21:17:05.349Z,84.46
2018-09-25T21:19:39.660Z,84.68
2018-09-25T21:22:14.309Z,86.00
2018-09-25T21:24:49.333Z,85.71
2018-09-25T21:27:23.644Z,86.32
2018-09-25T21:29:57.882Z,86.85
2018-09-25T21:32:32.275Z,86.73
2018-09-25T21:35:06.599Z,86.44
2018-09-25T21:37:41.329Z,87.30
2018-09-25T21:40:15.801Z,87.44
2018-09-25T21:42:50.324Z,87.66
2018-09-25T21:45:24.578Z,87.56
2018-09-25T21:47:59.132Z,87.12
2018-09-25T21:50:33.752Z,86.80
2018-09-25T21:53:08.071Z,86.81
2018-09-25T21:55:42.378Z,86.75
2018-09-25T21:58:16.860Z,86.35
2018-09-25T22:00:51.145Z,85.13
2018-09-25T22:03:25.417Z,85.02
2018-09-25T22:05:59.742Z,84.91
2018-09-25T22:08:34.020Z,84.21
2018-09-25T22:11:08.498Z,84.30
2018-09-25T22:13:42.897Z,84.37
2018-09-25T22:16:17.211Z,83.80
2018-09-25T22:18:51.521Z,83.60
2018-09-25T22:21:25.951Z,83.51
2018-09-25T22:24:00.204Z,83.56
2018-09-25T22:26:34.754Z,83.75
2018-09-25T22:29:09.058Z,83.39
2018-09-25T22:31:43.317Z,83.39
2018-09-25T22:34:17.733Z,83.53
2018-09-25T22:36:52.078Z,84.09
2018-09-25T22:39:26.594Z,84.05
2018-09-25T22:42:00.894Z,83.49
2018-09-25T22:44:35.206Z,84.43
2018-09-25T22:47:09.547Z,83.56
2018-09-25T22:49:43.998Z,83.81
2018-09-25T22:52:18.486Z,83.68
2018-09-25T22:54:53.028Z,84.32
2018-09-25T22:57:27.402Z,84.19
2018-09-25T23:00:01.728Z,84.91
2018-09-25T23:02:35.958Z,83.80
2018-09-25T23:05:10.547Z,83.51
2018-09-25T23:07:44.875Z,83.08
2018-09-25T23:10:19.283Z,82.83
2018-09-25T23:12:53.541Z,83.28
2018-09-25T23:15:27.857Z,83.43
2018-09-25T23:18:02.195Z,82.54
2018-09-25T23:20:36.508Z,82.45
2018-09-25T23:23:10.984Z,83.00
2018-09-25T23:25:45.338Z,83.94
2018-09-25T23:28:19.619Z,84.03
2018-09-25T23:30:54.015Z,83.32
2018-09-25T23:33:28.810Z,82.70
2018-09-25T23:36:03.146Z,82.59
2018-09-25T23:38:37.514Z,81.78
2018-09-25T23:41:12.059Z,82.99
2018-09-25T23:43:51.806Z,82.52
2018-09-25T23:46:28.207Z,82.33
2018-09-25T23:49:03.536Z,82.54
2018-09-25T23:51:37.679Z,81.90
2018-09-25T23:54:43.112Z,82.18
2018-09-25T23:57:14.994Z,82.12
2018-09-25T23:59:53.363Z,81.46
